• Join FlightAware (Why Join?)
  • Login
  • US Flag 
03:39PM EST


 

Airport Tracker/Info


-or-


 

Live Flight TrackerFlight Track Log ✈ SKW4542 ✈ 04-May-2013 ✈ KSLC - KIDA

Flight Track Log - Related Links

Times and Time Zones

All times are in EDT time to prevent confusion due to time zone crossing. See the SKW4542 flight status page for this flight to view local times or setup timezone preferences in your user account.

Time Position Orientation Groundspeed Altitude Reporting Facility
EDT Latitude Longitude Course Direction KTS MPH feet Rate Location/Type
06:58PM 40.8128 -112.0000 13° North 177 204 5,000  Level Salt Lake Center
06:59PM 40.8922 -112.0097 355° North 230 265 7,500 1,909 Climbing Salt Lake Center
07:00PM 40.9203 -112.0128 355° North 239 275 8,500 2,182 Climbing Salt Lake Center
07:00PM 40.9558 -112.0164 356° North 254 292 9,500 2,262 Climbing Salt Lake Center
07:01PM 41.2298 -111.8167 North  Level FlightAware Approximate
07:01PM 40.9956 -112.0189 357° North 267 307 10,800  Level Salt Lake Center
07:02PM 41.3369 -111.7298 37° Northeast  Level FlightAware Approximate
07:02PM 41.0656 -111.9625 31° Northeast 291 335 12,700  Level Salt Lake Center
07:03PM 41.4542 -111.6738 13° North  Level FlightAware Approximate
07:03PM 41.1433 -111.8953 33° Northeast 328 377 14,500  Level Salt Lake Center
07:04PM 41.2247 -111.8261 33° Northeast 344 396 16,300 1,934 Climbing Salt Lake Center
07:05PM 41.3139 -111.7622 28° Northeast 362 417 18,400 2,016 Climbing Salt Lake Center
07:06PM 41.4081 -111.7228 17° North 361 415 20,400 1,805 Climbing Salt Lake Center
07:07PM 41.5092 -111.7397 353° North 367 422 22,100 1,366 Climbing Salt Lake Center
07:08PM 41.6164 -111.7564 353° North 388 447 23,200 1,328 Climbing Salt Lake Center
07:09PM 41.7472 -111.7769 353° North 394 453 24,800 1,377 Climbing Salt Lake Center
07:10PM 41.8558 -111.7950 353° North 394 453 26,000 590 Climbing Salt Lake Center
07:11PM 41.9719 -111.8122 354° North 416 479 26,000  Level Salt Lake Center
07:12PM 42.0903 -111.8325 353° North 429 494 26,000  Level Salt Lake Center
07:13PM 42.2111 -111.8525 353° North 438 504 26,000  Level Salt Lake Center
07:14PM 42.3344 -111.8725 353° North 445 512 26,000  Level Salt Lake Center
07:15PM 42.4511 -111.9025 349° North 431 496 26,000 -488 Level Salt Lake Center
07:16PM 42.5617 -111.9489 343° North 418 481 25,000 -1,721 Descending Salt Lake Center
07:17PM 42.6753 -111.9847 347° North 419 482 22,500 -2,656 Descending Salt Lake Center
07:18PM 42.7950 -112.0278 345° North 400 460 19,600 -2,607 Descending Salt Lake Center
07:19PM 42.8933 -112.0644 345° North 387 445 17,200 -2,098 Descending Salt Lake Center
07:20PM 43.0036 -112.1047 345° North 371 427 15,300 -1,902 Descending Salt Lake Center
07:21PM 43.0903 -112.1394 344° North 350 403 13,300 -2,164 Descending Salt Lake Center
07:22PM 43.1736 -112.1697 345° North 333 383 10,900 -2,115 Descending Salt Lake Center
07:23PM 43.2650 -112.2131 341° North 320 368 9,000 -1,317 Descending Salt Lake Center
07:24PM 43.3350 -112.1917 13° North 285 328 8,200 -585 Descending Salt Lake Center
07:25PM 43.4056 -112.1800 North 248 285 7,800 -787 Descending Salt Lake Center
07:26PM 43.4542 -112.1575 19° North 216 249 6,600 -1,180 Descending Salt Lake Center
07:27PM 43.4806 -112.1072 54° Northeast 182 209 5,400 -878 Descending Salt Lake Center
07:28PM 43.5142 -112.0714 38° Northeast 151 174 4,800 -581 Descending Salt Lake Center